createdAt,value
2023-01-17T00:00:08.947Z,97163.06
2023-01-17T00:02:45.756Z,97116.94
2023-01-17T00:05:32.594Z,97236.94
2023-01-17T00:08:36.343Z,97202.59
2023-01-17T00:11:09.062Z,97211.03
2023-01-17T00:13:40.870Z,97191.88
2023-01-17T00:16:09.324Z,97238.78
2023-01-17T00:18:37.489Z,97251.19
2023-01-17T00:21:25.028Z,97265.44
2023-01-17T00:24:10.492Z,97251.72
2023-01-17T00:26:58.417Z,97257.50
2023-01-17T00:29:26.345Z,97267.69
2023-01-17T00:31:56.104Z,97243.91
2023-01-17T00:34:24.354Z,97267.13
2023-01-17T00:36:51.323Z,97248.81
2023-01-17T00:39:19.401Z,97249.88
2023-01-17T00:41:49.183Z,97283.03
2023-01-17T00:44:37.239Z,97229.38
2023-01-17T00:47:23.207Z,97279.84
2023-01-17T00:50:10.928Z,97264.13
2023-01-17T00:52:56.895Z,97273.50
2023-01-17T00:55:43.922Z,97283.53
2023-01-17T00:58:30.885Z,97279.19
2023-01-17T01:01:17.204Z,97282.06
2023-01-17T01:04:04.236Z,97296.94
2023-01-17T01:06:49.826Z,97298.03
2023-01-17T01:10:10.817Z,97307.41
2023-01-17T01:13:03.185Z,97323.53
2023-01-17T01:15:52.542Z,97324.50
2023-01-17T01:18:39.923Z,97311.00
2023-01-17T01:21:27.130Z,97331.25
2023-01-17T01:24:14.755Z,97317.19
2023-01-17T01:27:02.166Z,97315.59
2023-01-17T01:29:57.390Z,97345.16
2023-01-17T01:32:44.591Z,97341.25
2023-01-17T01:35:16.522Z,97292.97
2023-01-17T01:37:48.462Z,97329.88
2023-01-17T01:40:19.984Z,97374.72
2023-01-17T01:42:53.769Z,97372.00
2023-01-17T01:45:24.010Z,97374.38
2023-01-17T01:48:05.226Z,97385.34
2023-01-17T01:50:38.584Z,97382.69
2023-01-17T01:53:12.625Z,97381.59
2023-01-17T01:55:45.592Z,97382.91
2023-01-17T01:58:20.709Z,97399.81
2023-01-17T02:00:49.177Z,97401.59
2023-01-17T02:03:27.115Z,97400.88
2023-01-17T02:05:59.062Z,97382.94
2023-01-17T02:08:28.792Z,97406.94
2023-01-17T02:10:57.891Z,97408.56
2023-01-17T02:13:26.100Z,97415.72
2023-01-17T02:16:03.329Z,97427.06
2023-01-17T02:18:47.898Z,97417.22
2023-01-17T02:21:28.831Z,97432.50
2023-01-17T02:24:44.274Z,97417.25
2023-01-17T02:27:25.269Z,97431.94
2023-01-17T02:30:33.295Z,97430.00
2023-01-17T02:33:18.196Z,97423.69
2023-01-17T02:35:58.645Z,97384.50
2023-01-17T02:38:36.970Z,97394.28
2023-01-17T02:41:08.030Z,97425.91
2023-01-17T02:43:39.968Z,97439.50
2023-01-17T02:46:14.095Z,97451.44
2023-01-17T02:48:49.116Z,97447.22
2023-01-17T02:51:41.913Z,97449.72
2023-01-17T02:54:38.327Z,97457.09
2023-01-17T02:57:25.227Z,97449.19
2023-01-17T03:00:01.489Z,97455.78
2023-01-17T03:02:44.821Z,97459.94
2023-01-17T03:05:23.183Z,97464.09
2023-01-17T03:07:56.560Z,97461.00
2023-01-17T03:10:33.104Z,97462.09
2023-01-17T03:13:03.921Z,97467.84
2023-01-17T03:15:33.796Z,97467.97
2023-01-17T03:18:07.001Z,97475.91
2023-01-17T03:20:37.317Z,97478.97
2023-01-17T03:23:07.247Z,97465.09
2023-01-17T03:25:35.562Z,97476.78
2023-01-17T03:28:04.352Z,97471.78
2023-01-17T03:30:33.072Z,97490.81
2023-01-17T03:33:03.864Z,97487.03
2023-01-17T03:35:37.471Z,97472.78
2023-01-17T03:38:09.932Z,97437.19
2023-01-17T03:40:39.403Z,97482.47
2023-01-17T03:43:07.980Z,97476.53
2023-01-17T03:45:36.686Z,97489.00
2023-01-17T03:48:07.571Z,97492.75
2023-01-17T03:50:44.690Z,97443.84
2023-01-17T03:53:15.355Z,97494.13
2023-01-17T03:55:48.265Z,97488.81
2023-01-17T03:58:17.763Z,97490.69
2023-01-17T04:00:46.205Z,97505.25
2023-01-17T04:03:18.438Z,97491.84
2023-01-17T04:05:50.092Z,97486.88
2023-01-17T04:08:21.474Z,97511.44
2023-01-17T04:10:52.352Z,97514.88
2023-01-17T04:13:23.902Z,97505.94
2023-01-17T04:15:52.716Z,97518.38
2023-01-17T04:18:24.761Z,97526.56
2023-01-17T04:20:56.914Z,97521.38
2023-01-17T04:23:26.433Z,97523.81
2023-01-17T04:25:55.178Z,97531.16
2023-01-17T04:28:26.156Z,97518.97
2023-01-17T04:30:55.029Z,97511.97
2023-01-17T04:33:23.827Z,97526.66
2023-01-17T04:35:58.282Z,97501.78
2023-01-17T04:38:30.257Z,97530.16
2023-01-17T04:41:14.779Z,97539.09
2023-01-17T04:43:45.425Z,97542.25
2023-01-17T04:46:14.106Z,97519.16
2023-01-17T04:48:43.421Z,97552.09
2023-01-17T04:51:15.474Z,97556.16
2023-01-17T04:53:44.700Z,97558.44
2023-01-17T04:56:16.091Z,97554.38
2023-01-17T04:58:45.814Z,97556.22
2023-01-17T05:01:15.981Z,97551.44
2023-01-17T05:03:47.045Z,97538.47
2023-01-17T05:06:24.809Z,97561.06
2023-01-17T05:08:54.075Z,97562.53
2023-01-17T05:11:23.519Z,97564.22
2023-01-17T05:13:52.985Z,97564.69
2023-01-17T05:16:21.168Z,97579.94
2023-01-17T05:18:53.090Z,97578.66
2023-01-17T05:21:27.123Z,97580.75
2023-01-17T05:23:57.087Z,97573.22
2023-01-17T05:26:30.348Z,97575.53
2023-01-17T05:29:04.675Z,97571.00
2023-01-17T05:31:41.131Z,97587.09
2023-01-17T05:34:10.015Z,97533.00
2023-01-17T05:36:39.939Z,97583.59
2023-01-17T05:39:33.059Z,97584.72
2023-01-17T05:42:10.018Z,97596.09
2023-01-17T05:44:45.884Z,97603.91
2023-01-17T05:47:15.065Z,97588.16
2023-01-17T05:49:46.004Z,97596.66
2023-01-17T05:52:16.177Z,97599.00
2023-01-17T05:54:51.170Z,97597.28
2023-01-17T05:57:19.069Z,97603.47
2023-01-17T05:59:51.033Z,97606.69
2023-01-17T06:02:21.927Z,97609.50
2023-01-17T06:04:51.923Z,97595.66
2023-01-17T06:07:22.851Z,97601.44
2023-01-17T06:09:56.235Z,97599.47
2023-01-17T06:12:27.426Z,97604.38
2023-01-17T06:14:56.739Z,97609.50
2023-01-17T06:17:30.923Z,97607.72
2023-01-17T06:20:02.475Z,97614.56
2023-01-17T06:22:32.837Z,97619.34
2023-01-17T06:25:02.502Z,97619.78
2023-01-17T06:27:33.612Z,97620.72
2023-01-17T06:30:04.343Z,97607.19
2023-01-17T06:32:36.102Z,97607.19
2023-01-17T06:35:06.110Z,97619.78
2023-01-17T06:37:37.055Z,97619.66
2023-01-17T06:40:15.337Z,97624.06
2023-01-17T06:42:43.735Z,97592.75
2023-01-17T06:48:10.623Z,97613.88
2023-01-17T06:50:45.215Z,97628.41
2023-01-17T06:53:15.983Z,97632.31
2023-01-17T06:55:44.089Z,97602.69
2023-01-17T06:58:12.836Z,97632.47
2023-01-17T07:00:43.636Z,97632.63
2023-01-17T07:03:20.104Z,97630.06
2023-01-17T07:05:48.682Z,97626.91
2023-01-17T07:08:20.564Z,97577.38
2023-01-17T07:10:50.405Z,97629.59
2023-01-17T07:13:19.859Z,97597.00
2023-01-17T07:15:50.755Z,97610.19
2023-01-17T07:18:25.641Z,97614.41
2023-01-17T07:20:56.311Z,97624.19
2023-01-17T07:23:34.485Z,97629.53
2023-01-17T07:26:06.101Z,97624.06
2023-01-17T07:28:40.527Z,97618.81
2023-01-17T07:31:14.220Z,97608.25
2023-01-17T07:36:26.694Z,97586.50
2023-01-17T07:39:00.229Z,97545.09
2023-01-17T07:41:34.171Z,97584.16
2023-01-17T07:44:07.076Z,97612.91
2023-01-17T07:46:38.455Z,97601.13
2023-01-17T07:49:08.376Z,97604.16
2023-01-17T07:51:39.635Z,97604.75
2023-01-17T07:54:12.797Z,97586.38
2023-01-17T07:56:47.129Z,97561.91
2023-01-17T07:59:17.633Z,97590.84
2023-01-17T08:01:51.738Z,97605.63
2023-01-17T08:04:23.480Z,97608.75
2023-01-17T08:06:52.257Z,97608.63
2023-01-17T08:09:27.170Z,97613.88
2023-01-17T08:12:02.279Z,97610.03
2023-01-17T08:14:34.298Z,97600.50
2023-01-17T08:17:11.410Z,97546.28
2023-01-17T08:19:39.968Z,97524.63
2023-01-17T08:22:17.449Z,97589.59
2023-01-17T08:27:46.951Z,97558.53
2023-01-17T08:30:16.021Z,97582.81
2023-01-17T08:33:11.756Z,97575.00
2023-01-17T08:36:00.121Z,97573.47
2023-01-17T08:38:46.320Z,97551.09
2023-01-17T08:41:17.104Z,97555.66
2023-01-17T08:43:48.856Z,97566.66
2023-01-17T08:46:17.547Z,97561.31
2023-01-17T08:48:52.396Z,97501.06
2023-01-17T08:51:24.950Z,97550.06
2023-01-17T08:53:55.613Z,97531.06
2023-01-17T08:56:29.030Z,97533.66
2023-01-17T08:59:00.722Z,97555.59
2023-01-17T09:01:33.438Z,97540.97
2023-01-17T09:09:54.435Z,97554.38
2023-01-17T09:12:23.910Z,97565.78
2023-01-17T09:14:53.549Z,97518.56
2023-01-17T09:17:23.737Z,97515.94
2023-01-17T09:19:53.293Z,97566.56
2023-01-17T09:22:24.024Z,97567.63
2023-01-17T09:25:17.214Z,97572.75
2023-01-17T09:27:51.569Z,97570.06
2023-01-17T09:30:26.727Z,97569.78
2023-01-17T09:32:58.302Z,97565.09
2023-01-17T09:35:32.448Z,97538.66
2023-01-17T09:41:23.081Z,97579.59
2023-01-17T09:46:50.307Z,97564.53
2023-01-17T09:49:34.857Z,97560.78
2023-01-17T09:52:06.176Z,97585.09
2023-01-17T09:54:38.196Z,97553.44
2023-01-17T10:00:53.804Z,97573.16
2023-01-17T10:04:00.039Z,97587.38
2023-01-17T10:06:47.226Z,97565.19
2023-01-17T10:09:34.108Z,97580.59
2023-01-17T10:12:20.440Z,97579.16
2023-01-17T10:15:19.237Z,97564.56
2023-01-17T10:17:59.250Z,97584.00
2023-01-17T10:21:14.275Z,97577.50
2023-01-17T10:24:18.871Z,97576.84
2023-01-17T10:27:36.563Z,97569.50
2023-01-17T10:30:15.113Z,97566.41
2023-01-17T10:32:50.600Z,97545.47
2023-01-17T10:35:25.719Z,97577.69
2023-01-17T10:37:57.427Z,97537.03
2023-01-17T10:40:37.313Z,97558.91
2023-01-17T10:43:43.127Z,97528.28
2023-01-17T10:46:19.007Z,97561.44
2023-01-17T10:48:53.921Z,97564.44
2023-01-17T10:51:54.963Z,97572.16
2023-01-17T10:54:38.976Z,97570.75
2023-01-17T10:57:15.876Z,97569.25
2023-01-17T10:59:45.880Z,97570.13
2023-01-17T11:02:44.123Z,97583.50
2023-01-17T11:05:34.925Z,97585.44
2023-01-17T11:08:22.038Z,97583.56
2023-01-17T11:10:54.429Z,97573.66
2023-01-17T11:13:30.621Z,97581.16
2023-01-17T11:16:04.462Z,97574.03
2023-01-17T11:18:43.368Z,97578.13
2023-01-17T11:21:20.015Z,97573.25
2023-01-17T11:23:50.864Z,97559.63
2023-01-17T11:26:27.883Z,97566.06
2023-01-17T11:29:15.608Z,97570.38
2023-01-17T11:31:44.664Z,97571.19
2023-01-17T11:34:19.256Z,97557.31
2023-01-17T11:36:48.826Z,97567.44
2023-01-17T11:39:37.920Z,97559.91
2023-01-17T11:42:24.673Z,97546.03
2023-01-17T11:44:55.053Z,97554.03
2023-01-17T11:47:25.513Z,97549.69
2023-01-17T11:50:03.257Z,97545.66
2023-01-17T11:52:39.318Z,97543.94
2023-01-17T11:55:08.655Z,97531.84
2023-01-17T11:57:42.683Z,97500.06
2023-01-17T12:00:19.437Z,97511.09
2023-01-17T12:03:22.829Z,97506.00
2023-01-17T12:06:11.749Z,97494.72
2023-01-17T12:08:57.554Z,97503.75
2023-01-17T12:11:37.359Z,97510.81
2023-01-17T12:14:15.833Z,97439.56
2023-01-17T12:17:06.577Z,97496.47
2023-01-17T12:19:54.926Z,97487.56
2023-01-17T12:22:37.615Z,97492.03
2023-01-17T12:25:25.060Z,97459.69
2023-01-17T12:28:11.499Z,97485.59
2023-01-17T12:30:50.240Z,97477.75
2023-01-17T12:33:36.960Z,97475.19
2023-01-17T12:36:17.782Z,97451.50
2023-01-17T12:38:50.094Z,97469.25
2023-01-17T12:41:28.867Z,97475.75
2023-01-17T12:44:03.772Z,97471.75
2023-01-17T12:46:38.593Z,97457.22
2023-01-17T12:49:24.159Z,97458.81
2023-01-17T12:52:36.159Z,97454.19
2023-01-17T12:55:15.337Z,97443.22
2023-01-17T12:57:47.600Z,97443.47
2023-01-17T13:00:24.094Z,97449.94
2023-01-17T13:03:02.551Z,97436.44
2023-01-17T13:05:38.229Z,97439.94
2023-01-17T13:08:19.919Z,97441.28
2023-01-17T13:10:58.546Z,97440.47
2023-01-17T13:13:30.484Z,97399.97
2023-01-17T13:16:10.927Z,97432.25
2023-01-17T13:18:46.625Z,97433.88
2023-01-17T13:21:32.024Z,97425.84
2023-01-17T13:24:28.669Z,97426.81
2023-01-17T13:30:52.133Z,97432.47
2023-01-17T13:33:55.533Z,97434.03
2023-01-17T13:36:50.871Z,97418.44
2023-01-17T13:39:48.379Z,97425.69
2023-01-17T13:42:27.270Z,97429.72
2023-01-17T13:44:58.865Z,97438.09
2023-01-17T13:47:45.748Z,97435.59
2023-01-17T13:50:48.215Z,97435.88
2023-01-17T13:53:55.788Z,97430.50
2023-01-17T13:57:00.404Z,97432.00
2023-01-17T13:59:32.231Z,97415.53
2023-01-17T14:02:02.992Z,97446.59
2023-01-17T14:05:11.977Z,97436.31
2023-01-17T14:08:01.734Z,97454.59
2023-01-17T14:10:39.684Z,97450.25
2023-01-17T14:13:31.735Z,97412.72
2023-01-17T14:16:01.682Z,97458.88
2023-01-17T14:18:35.015Z,97450.94
2023-01-17T14:21:14.794Z,97445.34
2023-01-17T14:24:03.821Z,97429.03
2023-01-17T14:26:50.205Z,97409.84
2023-01-17T14:29:48.105Z,97427.97
2023-01-17T14:32:18.920Z,97432.03
2023-01-17T14:34:48.964Z,97438.22
2023-01-17T14:37:28.074Z,97448.66
2023-01-17T14:39:57.872Z,97450.97
2023-01-17T14:42:32.997Z,97421.59
2023-01-17T14:45:06.102Z,97426.41
2023-01-17T14:47:39.543Z,97435.81
2023-01-17T14:50:20.700Z,97438.72
2023-01-17T14:53:15.837Z,97409.22
2023-01-17T14:55:52.088Z,97435.31
2023-01-17T14:58:24.552Z,97423.69
2023-01-17T15:01:03.346Z,97437.00
2023-01-17T15:03:36.645Z,97420.22
2023-01-17T15:06:14.759Z,97420.78
2023-01-17T15:08:45.402Z,97399.28
2023-01-17T15:11:21.501Z,97422.19
2023-01-17T15:13:57.615Z,97426.75
2023-01-17T15:16:30.949Z,97420.22
2023-01-17T15:19:00.639Z,97425.03
2023-01-17T15:21:32.989Z,97431.41
2023-01-17T15:24:09.609Z,97396.66
2023-01-17T15:26:46.574Z,97430.44
2023-01-17T15:29:26.018Z,97438.44
2023-01-17T15:31:58.354Z,97443.97
2023-01-17T15:34:29.345Z,97439.38
2023-01-17T15:37:02.569Z,97441.34
2023-01-17T15:39:35.938Z,97431.56
2023-01-17T15:42:07.501Z,97443.47
2023-01-17T15:44:49.444Z,97442.84
2023-01-17T15:47:34.042Z,97444.81
2023-01-17T15:50:04.500Z,97440.59
2023-01-17T15:52:32.927Z,97450.75
2023-01-17T15:55:27.204Z,97445.56
2023-01-17T15:57:57.206Z,97418.50
2023-01-17T16:00:32.610Z,97414.72
2023-01-17T16:03:01.435Z,97428.75
2023-01-17T16:05:43.906Z,97461.66
2023-01-17T16:08:48.926Z,97466.94
2023-01-17T16:11:19.147Z,97432.72
2023-01-17T16:13:49.460Z,97474.25
2023-01-17T16:16:26.593Z,97468.56
2023-01-17T16:19:01.722Z,97474.16
2023-01-17T16:21:32.324Z,97467.50
2023-01-17T16:24:05.566Z,97474.66
2023-01-17T16:26:40.122Z,97419.97
2023-01-17T16:29:08.745Z,97472.22
2023-01-17T16:31:37.853Z,97438.56
2023-01-17T16:34:19.758Z,97433.69
2023-01-17T16:36:50.687Z,97474.16
2023-01-17T16:39:22.157Z,97472.50
2023-01-17T16:42:02.406Z,97473.72
2023-01-17T16:44:33.598Z,97472.69
2023-01-17T16:47:03.609Z,97477.00
2023-01-17T16:49:33.782Z,97473.97
2023-01-17T16:52:06.202Z,97468.09
2023-01-17T16:54:34.709Z,97476.03
2023-01-17T16:57:06.641Z,97474.16
2023-01-17T16:59:50.002Z,97476.97
2023-01-17T17:02:21.088Z,97472.06
2023-01-17T17:04:50.135Z,97437.53
2023-01-17T17:07:19.572Z,97473.94
2023-01-17T17:09:48.175Z,97474.25
2023-01-17T17:12:19.433Z,97479.47
2023-01-17T17:14:48.100Z,97473.81
2023-01-17T17:17:19.878Z,97419.47
2023-01-17T17:19:49.439Z,97479.09
2023-01-17T17:22:17.557Z,97482.09
2023-01-17T17:24:46.372Z,97478.28
2023-01-17T17:27:20.967Z,97477.84
2023-01-17T17:29:49.403Z,97486.22
2023-01-17T17:32:18.006Z,97467.03
2023-01-17T17:34:56.313Z,97487.59
2023-01-17T17:37:47.530Z,97467.84
2023-01-17T17:40:17.670Z,97490.31
2023-01-17T17:42:55.287Z,97489.84
2023-01-17T17:45:23.496Z,97479.06
2023-01-17T17:47:52.363Z,97496.03
2023-01-17T17:50:20.530Z,97508.38
2023-01-17T17:52:54.708Z,97482.91
2023-01-17T17:55:22.918Z,97482.69
2023-01-17T17:57:55.143Z,97477.72
2023-01-17T18:00:25.607Z,97494.56
2023-01-17T18:02:54.153Z,97517.69
2023-01-17T18:05:24.673Z,97502.47
2023-01-17T18:07:53.344Z,97505.50
2023-01-17T18:10:22.134Z,97519.47
2023-01-17T18:12:51.472Z,97518.66
2023-01-17T18:15:24.633Z,97521.78
2023-01-17T18:17:55.727Z,97513.66
2023-01-17T18:20:25.047Z,97510.63
2023-01-17T18:22:53.710Z,97515.47
2023-01-17T18:25:21.723Z,97524.09
2023-01-17T18:27:49.596Z,97522.94
2023-01-17T18:30:21.260Z,97522.59
2023-01-17T18:32:51.697Z,97527.34
2023-01-17T18:35:22.351Z,97528.63
2023-01-17T18:37:51.095Z,97528.28
2023-01-17T18:40:19.479Z,97493.53
2023-01-17T18:42:49.802Z,97482.59
2023-01-17T18:45:18.312Z,97479.34
2023-01-17T18:47:48.223Z,97528.50
2023-01-17T18:50:18.282Z,97532.22
2023-01-17T18:52:49.393Z,97539.91
2023-01-17T18:55:18.368Z,97531.53
2023-01-17T18:57:47.244Z,97516.31
2023-01-17T19:00:16.319Z,97541.31
2023-01-17T19:02:49.103Z,97545.59
2023-01-17T19:05:21.753Z,97548.41
2023-01-17T19:07:50.908Z,97548.63
2023-01-17T19:10:20.427Z,97554.34
2023-01-17T19:12:51.101Z,97533.66
2023-01-17T19:15:19.141Z,97470.63
2023-01-17T19:17:48.031Z,97556.75
2023-01-17T19:20:27.017Z,97548.41
2023-01-17T19:22:57.283Z,97574.00
2023-01-17T19:25:26.038Z,97559.22
2023-01-17T19:27:54.709Z,97579.44
2023-01-17T19:30:23.843Z,97576.75
2023-01-17T19:32:56.047Z,97567.13
2023-01-17T19:35:25.942Z,97581.56
2023-01-17T19:37:55.731Z,97574.09
2023-01-17T19:40:24.265Z,97598.06
2023-01-17T19:42:52.815Z,97580.84
2023-01-17T19:45:20.740Z,97598.53
2023-01-17T19:47:49.323Z,97604.34
2023-01-17T19:50:22.544Z,97589.81
2023-01-17T19:52:59.553Z,97592.69
2023-01-17T19:55:28.136Z,97606.44
2023-01-17T19:58:06.176Z,97585.34
2023-01-17T20:00:45.983Z,97575.47
2023-01-17T20:03:15.360Z,97601.91
2023-01-17T20:05:44.950Z,97600.16
2023-01-17T20:08:16.261Z,97591.22
2023-01-17T20:10:49.381Z,97609.44
2023-01-17T20:13:18.707Z,97596.50
2023-01-17T20:15:48.915Z,97610.00
2023-01-17T20:18:17.622Z,97591.97
2023-01-17T20:20:57.036Z,97579.88
2023-01-17T20:23:35.651Z,97606.88
2023-01-17T20:26:07.859Z,97558.81
2023-01-17T20:28:52.225Z,97611.16
2023-01-17T20:31:22.955Z,97618.50
2023-01-17T20:33:52.273Z,97619.31
2023-01-17T20:36:22.203Z,97610.50
2023-01-17T20:38:53.195Z,97578.75
2023-01-17T20:41:23.085Z,97612.81
2023-01-17T20:43:53.549Z,97606.28
2023-01-17T20:46:23.753Z,97618.31
2023-01-17T20:48:55.946Z,97618.88
2023-01-17T20:51:26.106Z,97611.91
2023-01-17T20:53:57.503Z,97622.97
2023-01-17T20:56:26.826Z,97622.03
2023-01-17T20:58:56.038Z,97626.94
2023-01-17T21:01:24.761Z,97624.47
2023-01-17T21:03:54.171Z,97613.06
2023-01-17T21:06:25.992Z,97612.25
2023-01-17T21:08:56.209Z,97618.88
2023-01-17T21:11:27.508Z,97623.06
2023-01-17T21:13:57.602Z,97627.38
2023-01-17T21:16:29.427Z,97627.63
2023-01-17T21:18:57.216Z,97624.59
2023-01-17T21:21:28.881Z,97628.69
2023-01-17T21:24:00.261Z,97628.31
2023-01-17T21:26:29.842Z,97627.97
2023-01-17T21:29:01.892Z,97623.34
2023-01-17T21:31:34.798Z,97626.00
2023-01-17T21:34:05.333Z,97629.03
2023-01-17T21:36:36.249Z,97621.78
2023-01-17T21:39:09.143Z,97630.16
2023-01-17T21:41:39.385Z,97632.84
2023-01-17T21:44:10.070Z,97633.19
2023-01-17T21:46:39.591Z,97626.34
2023-01-17T21:49:12.081Z,97617.72
2023-01-17T21:51:57.921Z,97640.16
2023-01-17T21:54:47.425Z,97637.00
2023-01-17T21:57:37.158Z,97625.59
2023-01-17T22:00:14.336Z,97643.66
2023-01-17T22:02:45.261Z,97632.84
2023-01-17T22:05:13.587Z,97611.66
2023-01-17T22:08:02.729Z,97629.84
2023-01-17T22:10:32.874Z,97646.31
2023-01-17T22:13:02.797Z,97642.84
2023-01-17T22:15:34.901Z,97645.38
2023-01-17T22:18:04.665Z,97638.41
2023-01-17T22:20:34.371Z,97647.81
2023-01-17T22:23:02.255Z,97651.19
2023-01-17T22:25:32.152Z,97642.81
2023-01-17T22:28:01.244Z,97645.47
2023-01-17T22:30:30.883Z,97627.75
2023-01-17T22:33:01.428Z,97627.69
2023-01-17T22:35:33.847Z,97626.53
2023-01-17T22:38:06.026Z,97636.56
2023-01-17T22:40:38.222Z,97623.97
2023-01-17T22:43:07.563Z,97627.44
2023-01-17T22:45:35.994Z,97634.19
2023-01-17T22:48:06.021Z,97619.81
2023-01-17T22:50:34.249Z,97629.56
2023-01-17T22:53:04.263Z,97619.78
2023-01-17T22:55:35.565Z,97629.91
2023-01-17T22:58:04.851Z,97632.78
2023-01-17T23:00:34.706Z,97632.22
2023-01-17T23:03:02.648Z,97637.69
2023-01-17T23:05:31.221Z,97633.38
2023-01-17T23:08:02.185Z,97630.69
2023-01-17T23:10:47.508Z,97635.59
2023-01-17T23:13:17.728Z,97631.06
2023-01-17T23:16:17.532Z,97630.91
2023-01-17T23:19:03.103Z,97629.44
2023-01-17T23:21:51.343Z,97623.84
2023-01-17T23:24:20.329Z,97624.63
2023-01-17T23:27:04.937Z,97627.53
2023-01-17T23:29:36.985Z,97629.00
2023-01-17T23:32:06.676Z,97624.88
2023-01-17T23:34:40.316Z,97625.06
2023-01-17T23:37:08.377Z,97613.03
2023-01-17T23:39:38.663Z,97618.38
2023-01-17T23:42:25.445Z,97617.00
2023-01-17T23:44:55.743Z,97612.41
2023-01-17T23:47:23.780Z,97609.53
2023-01-17T23:49:52.977Z,97608.59
2023-01-17T23:52:22.343Z,97602.22
2023-01-17T23:54:53.234Z,97602.69
2023-01-17T23:57:29.854Z,97611.31
2023-01-17T23:59:59.341Z,97606.84
